createdAt,value
2019-03-24T00:00:55.336Z,12.90
2019-03-24T00:03:25.536Z,12.90
2019-03-24T00:05:55.880Z,12.90
2019-03-24T00:08:26.106Z,12.90
2019-03-24T00:10:56.315Z,12.90
2019-03-24T00:13:26.551Z,12.80
2019-03-24T00:15:56.731Z,12.90
2019-03-24T00:18:26.986Z,12.90
2019-03-24T00:20:58.760Z,13.00
2019-03-24T00:23:29.105Z,12.90
2019-03-24T00:25:59.367Z,12.90
2019-03-24T00:28:29.561Z,12.90
2019-03-24T00:30:59.788Z,12.90
2019-03-24T00:33:30.241Z,12.90
2019-03-24T00:36:00.527Z,12.90
2019-03-24T00:38:30.740Z,13.00
2019-03-24T00:41:01.000Z,12.90
2019-03-24T00:43:31.212Z,12.90
2019-03-24T00:46:01.433Z,13.00
2019-03-24T00:48:32.195Z,12.90
2019-03-24T00:51:02.417Z,12.90
2019-03-24T00:53:32.627Z,12.90
2019-03-24T00:56:04.451Z,12.90
2019-03-24T00:58:34.657Z,12.90
2019-03-24T01:01:04.914Z,12.80
2019-03-24T01:03:35.359Z,12.80
2019-03-24T01:06:05.668Z,12.70
2019-03-24T01:08:35.888Z,12.60
2019-03-24T01:11:06.098Z,12.60
2019-03-24T01:13:36.363Z,12.60
2019-03-24T01:16:08.981Z,12.60
2019-03-24T01:18:39.164Z,12.60
2019-03-24T01:21:09.477Z,12.60
2019-03-24T01:23:39.693Z,12.60
2019-03-24T01:26:10.044Z,12.50
2019-03-24T01:28:40.268Z,12.50
2019-03-24T01:31:10.455Z,12.50
2019-03-24T01:33:41.086Z,12.50
2019-03-24T01:36:11.504Z,12.40
2019-03-24T01:38:43.272Z,12.30
2019-03-24T01:41:13.475Z,12.30
2019-03-24T01:43:43.716Z,12.30
2019-03-24T01:46:13.920Z,12.20
2019-03-24T01:48:44.190Z,12.20
2019-03-24T01:51:14.372Z,12.20
2019-03-24T01:53:44.591Z,12.10
2019-03-24T01:56:14.828Z,12.10
2019-03-24T01:58:45.082Z,12.00
2019-03-24T02:01:15.361Z,12.00
2019-03-24T02:03:45.588Z,12.00
2019-03-24T02:06:15.811Z,12.00
2019-03-24T02:08:47.591Z,11.90
2019-03-24T02:11:17.788Z,11.90
2019-03-24T02:13:48.010Z,11.80
2019-03-24T02:16:18.195Z,11.80
2019-03-24T02:18:48.417Z,11.80
2019-03-24T02:21:18.649Z,11.80
2019-03-24T02:23:48.841Z,11.70
2019-03-24T02:26:19.071Z,11.70
2019-03-24T02:28:49.289Z,11.60
2019-03-24T02:31:19.613Z,11.60
2019-03-24T02:33:51.442Z,11.60
2019-03-24T02:36:21.657Z,11.50
2019-03-24T02:38:51.902Z,11.40
2019-03-24T02:41:22.169Z,11.40
2019-03-24T02:43:52.468Z,11.40
2019-03-24T02:46:24.609Z,11.40
2019-03-24T02:48:54.704Z,11.40
2019-03-24T02:51:24.881Z,11.40
2019-03-24T02:53:55.118Z,11.30
2019-03-24T02:56:25.431Z,11.30
2019-03-24T02:58:55.713Z,11.30
2019-03-24T03:01:27.564Z,11.20
2019-03-24T03:03:57.772Z,11.30
2019-03-24T03:06:28.062Z,11.20
2019-03-24T03:08:58.257Z,11.20
2019-03-24T03:11:28.470Z,11.20
2019-03-24T03:13:58.685Z,11.20
2019-03-24T03:16:38.431Z,11.20
2019-03-24T03:19:00.874Z,11.20
2019-03-24T03:21:31.120Z,11.20
2019-03-24T03:24:01.333Z,11.20
2019-03-24T03:26:32.013Z,11.20
2019-03-24T03:29:02.289Z,11.20
2019-03-24T03:31:34.253Z,11.20
2019-03-24T03:34:04.536Z,11.20
2019-03-24T03:36:34.847Z,11.10
2019-03-24T03:39:06.158Z,11.10
2019-03-24T03:41:36.447Z,11.10
2019-03-24T03:44:06.654Z,11.10
2019-03-24T03:46:36.892Z,11.10
2019-03-24T03:49:07.611Z,11.00
2019-03-24T03:51:37.792Z,11.00
2019-03-24T03:54:08.034Z,10.90
2019-03-24T03:56:38.305Z,10.90
2019-03-24T03:59:10.245Z,10.90
2019-03-24T04:01:42.348Z,10.90
2019-03-24T04:04:12.570Z,10.80
2019-03-24T04:06:42.831Z,10.80
2019-03-24T04:09:13.072Z,10.70
2019-03-24T04:11:43.357Z,10.80
2019-03-24T04:14:13.646Z,10.80
2019-03-24T04:16:43.945Z,10.80
2019-03-24T04:19:14.128Z,10.80
2019-03-24T04:21:45.919Z,10.80
2019-03-24T04:24:17.695Z,10.80
2019-03-24T04:26:48.588Z,10.80
2019-03-24T04:29:21.189Z,10.80
2019-03-24T04:31:53.054Z,10.90
2019-03-24T04:34:23.263Z,10.90
2019-03-24T04:36:53.547Z,10.90
2019-03-24T04:39:23.767Z,10.90
2019-03-24T04:41:53.961Z,10.80
2019-03-24T04:44:24.162Z,10.80
2019-03-24T04:46:54.401Z,10.80
2019-03-24T04:49:24.604Z,10.80
2019-03-24T04:51:54.881Z,10.80
2019-03-24T04:54:25.068Z,10.80
2019-03-24T04:56:55.360Z,10.80
2019-03-24T04:59:25.613Z,10.80
2019-03-24T05:01:55.857Z,10.90
2019-03-24T05:04:26.085Z,10.90
2019-03-24T05:06:56.359Z,11.00
2019-03-24T05:09:26.793Z,11.00
2019-03-24T05:11:57.099Z,11.10
2019-03-24T05:14:27.365Z,11.10
2019-03-24T05:16:57.582Z,11.20
2019-03-24T05:19:27.771Z,11.30
2019-03-24T05:21:58.015Z,11.40
2019-03-24T05:24:28.231Z,11.50
2019-03-24T05:26:58.440Z,11.60
2019-03-24T05:29:28.680Z,11.90
2019-03-24T05:31:58.876Z,12.20
2019-03-24T05:34:29.352Z,12.30
2019-03-24T05:36:59.551Z,12.70
2019-03-24T05:39:29.828Z,13.20
2019-03-24T05:42:00.012Z,13.50
2019-03-24T05:44:30.323Z,13.80
2019-03-24T05:47:00.531Z,14.00
2019-03-24T05:49:30.757Z,14.20
2019-03-24T05:52:01.056Z,14.50
2019-03-24T05:54:31.300Z,14.80
2019-03-24T05:57:01.488Z,15.40
2019-03-24T05:59:31.725Z,16.00
2019-03-24T06:02:02.855Z,16.40
2019-03-24T06:04:33.095Z,16.50
2019-03-24T06:07:03.291Z,16.50
2019-03-24T06:09:33.499Z,16.60
2019-03-24T06:12:03.748Z,16.70
2019-03-24T06:14:33.967Z,16.80
2019-03-24T06:17:05.850Z,17.10
2019-03-24T06:19:36.036Z,17.60
2019-03-24T06:22:06.359Z,18.40
2019-03-24T06:24:36.548Z,18.60
2019-03-24T06:27:06.835Z,19.00
2019-03-24T06:29:37.073Z,19.50
2019-03-24T06:32:07.289Z,20.10
2019-03-24T06:34:39.250Z,21.10
2019-03-24T06:37:10.991Z,22.00
2019-03-24T06:39:41.213Z,23.60
2019-03-24T06:42:11.393Z,24.50
2019-03-24T06:44:41.639Z,25.40
2019-03-24T06:47:12.012Z,26.10
2019-03-24T06:49:44.030Z,26.40
2019-03-24T06:52:14.587Z,26.40
2019-03-24T06:54:46.390Z,26.70
2019-03-24T06:57:17.042Z,27.30
2019-03-24T06:59:47.351Z,28.20
2019-03-24T07:02:17.567Z,28.80
2019-03-24T07:04:47.760Z,29.20
2019-03-24T07:07:19.596Z,30.10
2019-03-24T07:09:49.831Z,30.60
2019-03-24T07:12:20.076Z,31.00
2019-03-24T07:14:51.836Z,31.80
2019-03-24T07:17:22.164Z,32.60
2019-03-24T07:19:52.361Z,33.20
2019-03-24T07:22:22.771Z,33.60
2019-03-24T07:24:52.960Z,34.00
2019-03-24T07:27:23.226Z,34.50
2019-03-24T07:29:53.558Z,34.40
2019-03-24T07:32:23.828Z,35.00
2019-03-24T07:34:54.493Z,35.80
2019-03-24T07:37:24.862Z,36.10
2019-03-24T07:39:55.948Z,36.40
2019-03-24T07:42:26.210Z,36.60
2019-03-24T07:44:56.516Z,37.40
2019-03-24T07:47:28.419Z,38.00
2019-03-24T07:49:58.630Z,38.40
2019-03-24T07:52:28.895Z,38.70
2019-03-24T07:54:59.191Z,39.30
2019-03-24T07:57:29.437Z,39.60
2019-03-24T07:59:59.695Z,40.00
2019-03-24T08:02:29.908Z,40.00
2019-03-24T08:05:00.294Z,40.50
2019-03-24T08:07:30.639Z,40.80
2019-03-24T08:10:00.872Z,41.10
2019-03-24T08:12:31.064Z,41.30
2019-03-24T08:15:01.321Z,41.50
2019-03-24T08:17:31.553Z,41.90
2019-03-24T08:20:01.742Z,42.20
2019-03-24T08:22:33.508Z,42.30
2019-03-24T08:25:03.991Z,42.50
2019-03-24T08:27:34.365Z,42.80
2019-03-24T08:30:05.817Z,43.10
2019-03-24T08:32:37.720Z,43.30
2019-03-24T08:35:07.902Z,43.40
2019-03-24T08:37:38.389Z,43.60
2019-03-24T08:40:10.149Z,43.80
2019-03-24T08:42:40.487Z,44.00
2019-03-24T08:45:13.806Z,44.20
2019-03-24T08:47:44.165Z,44.50
2019-03-24T08:50:15.204Z,44.90
2019-03-24T08:52:45.462Z,45.20
2019-03-24T08:55:15.740Z,44.70
2019-03-24T08:57:46.013Z,45.00
2019-03-24T09:00:16.279Z,44.80
2019-03-24T09:02:46.473Z,44.90
2019-03-24T09:05:16.679Z,44.90
2019-03-24T09:07:46.903Z,44.10
2019-03-24T09:10:17.122Z,42.80
2019-03-24T09:12:47.436Z,42.50
2019-03-24T09:15:17.677Z,42.90
2019-03-24T09:17:48.059Z,43.00
2019-03-24T09:20:20.197Z,43.10
2019-03-24T09:22:50.386Z,42.90
2019-03-24T09:25:20.713Z,42.70
2019-03-24T09:27:53.485Z,42.40
2019-03-24T09:30:34.316Z,42.00
2019-03-24T09:33:04.624Z,41.80
2019-03-24T09:35:34.887Z,41.70
2019-03-24T09:38:05.238Z,41.50
2019-03-24T09:40:35.908Z,41.20
2019-03-24T09:43:06.105Z,40.40
2019-03-24T09:45:36.328Z,39.90
2019-03-24T09:48:06.605Z,39.20
2019-03-24T09:50:36.870Z,38.00
2019-03-24T09:53:07.214Z,36.30
2019-03-24T09:55:37.422Z,34.50
2019-03-24T09:58:07.711Z,32.80
2019-03-24T10:00:38.124Z,31.30
2019-03-24T10:03:09.916Z,29.90
2019-03-24T10:05:41.752Z,28.70
2019-03-24T10:08:11.963Z,27.70
2019-03-24T10:10:42.163Z,27.00
2019-03-24T10:13:12.413Z,26.40
2019-03-24T10:15:42.619Z,25.80
2019-03-24T10:18:12.846Z,25.40
2019-03-24T10:20:43.207Z,25.00
2019-03-24T10:23:13.436Z,24.80
2019-03-24T10:25:43.665Z,24.50
2019-03-24T10:28:15.483Z,24.40
2019-03-24T10:30:45.699Z,24.10
2019-03-24T10:33:15.892Z,24.00
2019-03-24T10:35:46.147Z,23.90
2019-03-24T10:38:16.368Z,23.60
2019-03-24T10:40:46.619Z,23.50
2019-03-24T10:43:16.951Z,23.50
2019-03-24T10:45:47.164Z,23.50
2019-03-24T10:48:17.379Z,23.50
2019-03-24T10:50:47.617Z,23.40
2019-03-24T10:53:17.873Z,23.30
2019-03-24T10:55:48.121Z,23.30
2019-03-24T10:58:18.419Z,23.30
2019-03-24T11:00:49.558Z,23.20
2019-03-24T11:03:19.777Z,23.10
2019-03-24T11:05:51.667Z,23.10
2019-03-24T11:08:21.885Z,23.00
2019-03-24T11:10:53.665Z,23.00
2019-03-24T11:13:23.875Z,23.00
2019-03-24T11:15:54.094Z,22.90
2019-03-24T11:18:24.316Z,22.80
2019-03-24T11:20:54.515Z,22.70
2019-03-24T11:23:24.845Z,22.50
2019-03-24T11:25:55.132Z,22.60
2019-03-24T11:28:25.357Z,22.60
2019-03-24T11:30:55.583Z,22.60
2019-03-24T11:33:25.854Z,22.60
2019-03-24T11:35:56.232Z,22.60
2019-03-24T11:38:26.517Z,22.60
2019-03-24T11:40:59.103Z,22.60
2019-03-24T11:43:29.340Z,22.50
2019-03-24T11:45:59.605Z,22.50
2019-03-24T11:48:31.448Z,22.40
2019-03-24T11:51:01.646Z,22.30
2019-03-24T11:53:31.867Z,22.30
2019-03-24T11:56:02.044Z,22.30
2019-03-24T11:58:32.305Z,22.30
2019-03-24T12:01:02.630Z,22.30
2019-03-24T12:03:32.831Z,22.20
2019-03-24T12:06:13.699Z,22.30
2019-03-24T12:08:35.020Z,22.20
2019-03-24T12:11:05.252Z,22.10
2019-03-24T12:13:35.689Z,22.20
2019-03-24T12:16:07.515Z,22.10
2019-03-24T12:18:37.717Z,22.20
2019-03-24T12:21:07.989Z,22.10
2019-03-24T12:23:39.734Z,22.10
2019-03-24T12:26:09.967Z,22.00
2019-03-24T12:28:45.128Z,21.90
2019-03-24T12:31:15.371Z,21.90
2019-03-24T12:33:45.653Z,21.80
2019-03-24T12:36:15.960Z,21.80
2019-03-24T12:38:46.204Z,21.80
2019-03-24T12:41:16.752Z,21.80
2019-03-24T12:43:47.024Z,21.70
2019-03-24T12:46:17.325Z,21.70
2019-03-24T12:48:47.581Z,21.70
2019-03-24T12:51:17.819Z,21.70
2019-03-24T12:53:48.072Z,21.70
2019-03-24T12:56:18.296Z,21.80
2019-03-24T12:58:48.535Z,21.80
2019-03-24T13:01:18.736Z,21.70
2019-03-24T13:03:48.955Z,21.70
2019-03-24T13:06:19.163Z,21.70
2019-03-24T13:08:49.372Z,21.70
2019-03-24T13:11:19.608Z,21.50
2019-03-24T13:13:49.822Z,21.40
2019-03-24T13:16:20.427Z,21.50
2019-03-24T13:18:50.643Z,21.60
2019-03-24T13:21:20.871Z,21.60
2019-03-24T13:23:51.147Z,21.50
2019-03-24T13:26:23.022Z,21.60
2019-03-24T13:28:53.221Z,21.50
2019-03-24T13:31:23.437Z,21.50
2019-03-24T13:33:53.664Z,21.50
2019-03-24T13:36:23.876Z,21.50
2019-03-24T13:38:56.106Z,21.60
2019-03-24T13:41:26.290Z,21.60
2019-03-24T13:43:56.528Z,21.50
2019-03-24T13:46:26.846Z,21.50
2019-03-24T13:48:58.627Z,21.60
2019-03-24T13:51:28.959Z,21.60
2019-03-24T13:53:59.224Z,21.60
2019-03-24T13:56:31.044Z,21.70
2019-03-24T13:59:01.289Z,21.60
2019-03-24T14:01:31.506Z,21.60
2019-03-24T14:04:01.943Z,21.60
2019-03-24T14:06:32.295Z,21.60
2019-03-24T14:09:02.815Z,21.60
2019-03-24T14:11:33.063Z,21.60
2019-03-24T14:14:03.287Z,21.60
2019-03-24T14:16:33.515Z,21.50
2019-03-24T14:19:04.115Z,21.60
2019-03-24T14:21:34.420Z,21.50
2019-03-24T14:24:06.483Z,21.50
2019-03-24T14:26:36.676Z,21.50
2019-03-24T14:29:06.917Z,21.50
2019-03-24T14:31:37.111Z,21.50
2019-03-24T14:34:07.318Z,21.50
2019-03-24T14:36:37.678Z,21.40
2019-03-24T14:39:07.876Z,21.40
2019-03-24T14:41:38.106Z,21.40
2019-03-24T14:44:08.308Z,21.40
2019-03-24T14:46:38.543Z,21.40
2019-03-24T14:49:11.150Z,21.40
2019-03-24T14:51:41.440Z,21.40
2019-03-24T14:54:11.630Z,21.30
2019-03-24T14:56:41.873Z,21.30
2019-03-24T14:59:12.092Z,21.30
2019-03-24T15:01:42.821Z,21.30
2019-03-24T15:04:13.028Z,21.30
2019-03-24T15:06:43.977Z,21.20
2019-03-24T15:09:14.231Z,21.20
2019-03-24T15:11:44.481Z,21.20
2019-03-24T15:14:14.719Z,21.20
2019-03-24T15:16:44.928Z,21.20
2019-03-24T15:19:15.174Z,21.10
2019-03-24T15:21:45.527Z,21.10
2019-03-24T15:24:15.938Z,21.10
2019-03-24T15:26:46.254Z,21.00
2019-03-24T15:29:16.550Z,21.00
2019-03-24T15:31:46.881Z,20.90
2019-03-24T15:34:17.103Z,20.90
2019-03-24T15:36:47.413Z,20.90
2019-03-24T15:39:17.632Z,20.80
2019-03-24T15:41:47.890Z,20.80
2019-03-24T15:44:18.117Z,20.70
2019-03-24T15:46:48.322Z,20.70
2019-03-24T15:49:18.545Z,20.60
2019-03-24T15:51:48.772Z,20.60
2019-03-24T15:54:18.978Z,20.60
2019-03-24T15:56:49.209Z,20.60
2019-03-24T15:59:19.430Z,20.50
2019-03-24T16:01:52.684Z,20.50
2019-03-24T16:04:22.916Z,20.40
2019-03-24T16:06:53.110Z,20.40
2019-03-24T16:09:23.339Z,20.40
2019-03-24T16:11:53.584Z,20.30
2019-03-24T16:14:23.832Z,20.30
2019-03-24T16:16:54.060Z,20.20
2019-03-24T16:19:24.309Z,20.20
2019-03-24T16:21:54.668Z,20.10
2019-03-24T16:24:25.720Z,20.10
2019-03-24T16:26:55.932Z,20.10
2019-03-24T16:29:27.859Z,20.00
2019-03-24T16:31:58.177Z,20.00
2019-03-24T16:34:28.396Z,19.90
2019-03-24T16:36:59.719Z,19.90
2019-03-24T16:39:29.932Z,19.90
2019-03-24T16:42:00.148Z,19.80
2019-03-24T16:44:30.367Z,19.70
2019-03-24T16:47:00.680Z,19.70
2019-03-24T16:49:30.894Z,19.60
2019-03-24T16:52:01.115Z,19.60
2019-03-24T16:54:31.316Z,19.50
2019-03-24T16:57:01.540Z,19.50
2019-03-24T16:59:31.760Z,19.40
2019-03-24T17:02:01.974Z,19.30
2019-03-24T17:04:32.577Z,19.30
2019-03-24T17:07:02.867Z,19.20
2019-03-24T17:09:33.120Z,19.10
2019-03-24T17:12:04.944Z,19.10
2019-03-24T17:14:35.190Z,19.00
2019-03-24T17:17:05.415Z,18.90
2019-03-24T17:19:35.764Z,18.90
2019-03-24T17:22:05.955Z,18.90
2019-03-24T17:24:36.178Z,18.80
2019-03-24T17:27:06.483Z,18.70
2019-03-24T17:29:36.789Z,18.70
2019-03-24T17:32:07.104Z,18.60
2019-03-24T17:34:37.296Z,18.50
2019-03-24T17:37:07.533Z,18.50
2019-03-24T17:39:37.710Z,18.40
2019-03-24T17:42:07.941Z,18.40
2019-03-24T17:44:40.798Z,18.40
2019-03-24T17:47:13.482Z,18.30
2019-03-24T17:49:43.696Z,18.20
2019-03-24T17:52:14.117Z,18.20
2019-03-24T17:54:46.103Z,18.20
2019-03-24T17:57:16.367Z,18.20
2019-03-24T17:59:46.565Z,18.20
2019-03-24T18:02:16.776Z,18.10
2019-03-24T18:04:46.996Z,18.00
2019-03-24T18:07:17.203Z,18.00
2019-03-24T18:09:47.431Z,18.00
2019-03-24T18:12:17.674Z,18.00
2019-03-24T18:14:47.916Z,18.00
2019-03-24T18:17:18.167Z,17.90
2019-03-24T18:19:48.406Z,17.80
2019-03-24T18:22:20.248Z,17.80
2019-03-24T18:24:50.568Z,17.80
2019-03-24T18:27:20.780Z,17.70
2019-03-24T18:29:51.026Z,17.70
2019-03-24T18:32:23.231Z,17.70
2019-03-24T18:34:53.722Z,17.60
2019-03-24T18:37:23.991Z,17.60
2019-03-24T18:39:54.256Z,17.60
2019-03-24T18:42:24.469Z,17.50
2019-03-24T18:44:54.901Z,17.50
2019-03-24T18:47:25.178Z,17.40
2019-03-24T18:49:55.424Z,17.30
2019-03-24T18:52:25.813Z,17.20
2019-03-24T18:54:56.027Z,17.20
2019-03-24T18:57:27.908Z,17.10
2019-03-24T18:59:58.115Z,17.00
2019-03-24T19:02:28.373Z,17.00
2019-03-24T19:04:58.612Z,16.90
2019-03-24T19:07:28.817Z,16.90
2019-03-24T19:09:59.071Z,16.80
2019-03-24T19:12:30.925Z,16.80
2019-03-24T19:15:02.104Z,16.80
2019-03-24T19:17:32.325Z,16.70
2019-03-24T19:20:05.025Z,16.70
2019-03-24T19:22:35.262Z,16.60
2019-03-24T19:25:08.519Z,16.60
2019-03-24T19:27:38.728Z,16.50
2019-03-24T19:30:16.248Z,16.50
2019-03-24T19:32:46.766Z,16.40
2019-03-24T19:35:17.136Z,16.40
2019-03-24T19:37:47.371Z,16.30
2019-03-24T19:40:29.180Z,16.30
2019-03-24T19:42:59.455Z,16.20
2019-03-24T19:45:29.812Z,16.20
2019-03-24T19:48:00.134Z,16.20
2019-03-24T19:50:30.468Z,16.20
2019-03-24T19:53:02.334Z,16.10
2019-03-24T19:55:32.634Z,16.10
2019-03-24T19:58:02.897Z,16.10
2019-03-24T20:00:33.158Z,16.00
2019-03-24T20:03:03.433Z,16.00
2019-03-24T20:05:33.715Z,15.90
2019-03-24T20:08:03.945Z,15.90
2019-03-24T20:10:34.155Z,15.80
2019-03-24T20:13:04.420Z,15.80
2019-03-24T20:15:34.762Z,15.80
2019-03-24T20:18:05.093Z,15.80
2019-03-24T20:20:35.413Z,15.80
2019-03-24T20:23:08.896Z,15.80
2019-03-24T20:25:40.003Z,15.70
2019-03-24T20:28:10.260Z,15.80
2019-03-24T20:30:41.462Z,15.70
2019-03-24T20:33:13.287Z,15.60
2019-03-24T20:35:43.472Z,15.60
2019-03-24T20:38:13.713Z,15.50
2019-03-24T20:40:45.484Z,15.40
2019-03-24T20:43:15.709Z,15.30
2019-03-24T20:45:47.037Z,15.30
2019-03-24T20:48:18.922Z,15.20
2019-03-24T20:50:49.138Z,15.10
2019-03-24T20:53:19.431Z,15.00
2019-03-24T20:55:49.661Z,15.00
2019-03-24T20:58:20.249Z,15.00
2019-03-24T21:00:50.499Z,15.00
2019-03-24T21:03:20.688Z,15.10
2019-03-24T21:05:52.501Z,15.20
2019-03-24T21:08:22.700Z,15.20
2019-03-24T21:10:53.028Z,15.20
2019-03-24T21:13:23.349Z,15.10
2019-03-24T21:15:53.561Z,15.10
2019-03-24T21:18:23.797Z,15.10
2019-03-24T21:20:53.972Z,15.00
2019-03-24T21:23:29.441Z,15.00
2019-03-24T21:25:56.156Z,15.10
2019-03-24T21:28:27.951Z,15.20
2019-03-24T21:30:58.176Z,15.20
2019-03-24T21:33:31.135Z,15.30
2019-03-24T21:36:01.515Z,15.20
2019-03-24T21:38:31.827Z,15.20
2019-03-24T21:41:02.290Z,15.20
2019-03-24T21:43:32.635Z,15.20
2019-03-24T21:46:02.453Z,15.10
2019-03-24T21:48:32.724Z,15.10
2019-03-24T21:51:02.976Z,15.10
2019-03-24T21:53:40.558Z,15.10
2019-03-24T21:56:05.208Z,15.10
2019-03-24T21:58:35.519Z,15.10
2019-03-24T22:01:05.728Z,15.10
2019-03-24T22:03:37.511Z,15.20
2019-03-24T22:06:07.708Z,15.20
2019-03-24T22:08:37.957Z,15.20
2019-03-24T22:11:08.131Z,15.20
2019-03-24T22:13:38.423Z,15.20
2019-03-24T22:16:08.746Z,15.10
2019-03-24T22:18:39.000Z,15.00
2019-03-24T22:21:09.210Z,15.00
2019-03-24T22:23:39.487Z,14.90
2019-03-24T22:26:09.715Z,14.70
2019-03-24T22:28:40.076Z,14.60
2019-03-24T22:31:10.478Z,14.60
2019-03-24T22:33:40.698Z,14.50
2019-03-24T22:36:10.918Z,14.40
2019-03-24T22:38:41.114Z,14.40
2019-03-24T22:41:11.329Z,14.30
2019-03-24T22:43:41.585Z,14.30
2019-03-24T22:46:11.778Z,14.30
2019-03-24T22:48:42.013Z,14.20
2019-03-24T22:51:12.208Z,14.20
2019-03-24T22:53:42.416Z,14.20
2019-03-24T22:56:12.642Z,14.20
2019-03-24T22:58:43.021Z,14.10
2019-03-24T23:01:13.265Z,14.10
2019-03-24T23:03:43.531Z,14.00
2019-03-24T23:06:16.684Z,14.00
2019-03-24T23:08:46.933Z,14.00
2019-03-24T23:11:17.152Z,14.00
2019-03-24T23:13:47.448Z,14.00
2019-03-24T23:16:17.723Z,13.90
2019-03-24T23:18:47.911Z,13.90
2019-03-24T23:21:18.171Z,13.80
2019-03-24T23:23:49.199Z,13.80
2019-03-24T23:26:19.425Z,13.70
2019-03-24T23:28:51.211Z,13.70
2019-03-24T23:31:21.529Z,13.70
2019-03-24T23:33:51.720Z,13.60
2019-03-24T23:36:23.514Z,13.60
2019-03-24T23:38:53.696Z,13.50
2019-03-24T23:41:23.919Z,13.50
2019-03-24T23:43:54.133Z,13.50
2019-03-24T23:46:24.364Z,13.40
2019-03-24T23:48:54.552Z,13.40
2019-03-24T23:51:24.800Z,13.40
2019-03-24T23:53:55.038Z,13.30
2019-03-24T23:56:25.295Z,13.30
2019-03-24T23:58:57.184Z,13.30
